createdAt,value
2019-02-24T00:00:11.632Z,1.90
2019-02-24T00:02:38.595Z,1.90
2019-02-24T00:05:06.753Z,1.90
2019-02-24T00:07:33.781Z,1.90
2019-02-24T00:10:00.741Z,1.90
2019-02-24T00:12:27.658Z,1.90
2019-02-24T00:14:54.573Z,1.90
2019-02-24T00:17:21.414Z,1.90
2019-02-24T00:19:48.338Z,1.90
2019-02-24T00:22:15.235Z,1.90
2019-02-24T00:24:42.105Z,1.90
2019-02-24T00:27:09.010Z,1.90
2019-02-24T00:29:35.822Z,1.90
2019-02-24T00:32:02.905Z,1.90
2019-02-24T00:34:29.709Z,1.90
2019-02-24T00:36:56.522Z,1.90
2019-02-24T00:39:23.387Z,1.90
2019-02-24T00:41:50.215Z,1.90
2019-02-24T00:44:17.033Z,1.90
2019-02-24T00:46:43.985Z,1.90
2019-02-24T00:49:11.009Z,1.80
2019-02-24T00:51:37.826Z,1.80
2019-02-24T00:54:04.674Z,1.80
2019-02-24T00:56:31.454Z,1.80
2019-02-24T00:58:58.278Z,1.70
2019-02-24T01:01:25.308Z,1.80
2019-02-24T01:03:52.123Z,1.70
2019-02-24T01:06:19.236Z,1.80
2019-02-24T01:08:46.266Z,1.80
2019-02-24T01:11:13.050Z,1.70
2019-02-24T01:13:39.855Z,1.70
2019-02-24T01:16:06.788Z,1.70
2019-02-24T01:18:33.586Z,1.70
2019-02-24T01:21:00.394Z,1.60
2019-02-24T01:23:27.243Z,1.70
2019-02-24T01:25:54.041Z,1.60
2019-02-24T01:28:25.313Z,1.60
2019-02-24T01:30:49.734Z,1.60
2019-02-24T01:33:16.538Z,1.60
2019-02-24T01:35:43.528Z,1.60
2019-02-24T01:38:10.361Z,1.60
2019-02-24T01:40:37.269Z,1.60
2019-02-24T01:43:04.201Z,1.60
2019-02-24T01:45:31.162Z,1.60
2019-02-24T01:47:57.972Z,1.60
2019-02-24T01:50:24.773Z,1.60
2019-02-24T01:52:51.735Z,1.60
2019-02-24T01:55:18.525Z,1.60
2019-02-24T01:57:45.419Z,1.60
2019-02-24T02:00:12.354Z,1.60
2019-02-24T02:02:39.257Z,1.60
2019-02-24T02:05:06.283Z,1.60
2019-02-24T02:07:33.222Z,1.60
2019-02-24T02:10:00.023Z,1.60
2019-02-24T02:12:26.825Z,1.60
2019-02-24T02:14:53.814Z,1.60
2019-02-24T02:17:20.621Z,1.60
2019-02-24T02:19:47.423Z,1.60
2019-02-24T02:22:14.457Z,1.60
2019-02-24T02:24:41.260Z,1.60
2019-02-24T02:27:08.286Z,1.70
2019-02-24T02:29:35.101Z,1.70
2019-02-24T02:32:01.914Z,1.70
2019-02-24T02:34:28.736Z,1.60
2019-02-24T02:36:55.787Z,1.60
2019-02-24T02:39:22.589Z,1.60
2019-02-24T02:41:49.385Z,1.60
2019-02-24T02:44:16.340Z,1.60
2019-02-24T02:46:43.247Z,1.60
2019-02-24T02:49:10.151Z,1.60
2019-02-24T02:51:37.417Z,1.60
2019-02-24T02:54:04.404Z,1.60
2019-02-24T02:56:31.206Z,1.60
2019-02-24T02:58:58.027Z,1.60
2019-02-24T03:01:24.949Z,1.60
2019-02-24T03:03:51.759Z,1.60
2019-02-24T03:06:53.499Z,1.60
2019-02-24T03:09:20.308Z,1.60
2019-02-24T03:11:47.215Z,1.60
2019-02-24T03:14:14.197Z,1.60
2019-02-24T03:16:41.043Z,1.60
2019-02-24T03:19:07.928Z,1.60
2019-02-24T03:21:34.845Z,1.60
2019-02-24T03:24:01.652Z,1.60
2019-02-24T03:26:28.490Z,1.60
2019-02-24T03:29:03.802Z,1.60
2019-02-24T03:31:24.243Z,1.60
2019-02-24T03:33:51.151Z,1.60
2019-02-24T03:36:18.131Z,1.50
2019-02-24T03:38:45.345Z,1.40
2019-02-24T03:41:12.576Z,1.40
2019-02-24T03:43:39.404Z,1.40
2019-02-24T03:46:06.235Z,1.30
2019-02-24T03:48:33.026Z,1.30
2019-02-24T03:50:59.914Z,1.30
2019-02-24T03:53:26.699Z,1.20
2019-02-24T03:55:53.688Z,1.20
2019-02-24T03:58:20.745Z,1.20
2019-02-24T04:00:47.665Z,1.10
2019-02-24T04:03:14.578Z,1.10
2019-02-24T04:05:41.406Z,1.10
2019-02-24T04:08:08.277Z,1.10
2019-02-24T04:10:35.267Z,1.10
2019-02-24T04:13:02.116Z,1.10
2019-02-24T04:15:28.981Z,1.10
2019-02-24T04:17:55.798Z,1.10
2019-02-24T04:20:22.750Z,1.10
2019-02-24T04:22:49.546Z,1.10
2019-02-24T04:25:16.470Z,1.10
2019-02-24T04:27:43.322Z,1.10
2019-02-24T04:30:10.295Z,1.20
2019-02-24T04:32:37.109Z,1.20
2019-02-24T04:35:04.460Z,1.20
2019-02-24T04:37:31.291Z,1.20
2019-02-24T04:39:58.131Z,1.20
2019-02-24T04:42:25.021Z,1.20
2019-02-24T04:44:51.841Z,1.20
2019-02-24T04:47:18.663Z,1.20
2019-02-24T04:49:45.558Z,1.20
2019-02-24T04:52:12.368Z,1.20
2019-02-24T04:54:39.190Z,1.20
2019-02-24T04:57:06.159Z,1.20
2019-02-24T04:59:35.204Z,1.30
2019-02-24T05:02:02.180Z,1.30
2019-02-24T05:04:29.066Z,1.30
2019-02-24T05:06:56.010Z,1.40
2019-02-24T05:09:22.827Z,1.40
2019-02-24T05:11:49.752Z,1.40
2019-02-24T05:14:16.615Z,1.50
2019-02-24T05:16:43.438Z,1.50
2019-02-24T05:19:10.371Z,1.50
2019-02-24T05:21:37.162Z,1.50
2019-02-24T05:24:04.066Z,1.40
2019-02-24T05:26:30.932Z,1.40
2019-02-24T05:29:00.718Z,1.40
2019-02-24T05:31:27.510Z,1.40
2019-02-24T05:33:57.054Z,1.30
2019-02-24T05:36:23.932Z,1.30
2019-02-24T05:38:53.058Z,1.30
2019-02-24T05:41:19.886Z,1.20
2019-02-24T05:43:47.090Z,1.20
2019-02-24T05:46:13.894Z,1.20
2019-02-24T05:48:40.830Z,1.10
2019-02-24T05:51:07.666Z,1.10
2019-02-24T05:53:34.561Z,1.10
2019-02-24T05:56:01.508Z,1.10
2019-02-24T05:58:28.336Z,1.10
2019-02-24T06:00:55.138Z,1.10
2019-02-24T06:03:21.999Z,1.10
2019-02-24T06:05:48.830Z,1.10
2019-02-24T06:08:15.821Z,1.10
2019-02-24T06:10:42.856Z,1.10
2019-02-24T06:13:09.666Z,1.10
2019-02-24T06:15:36.489Z,1.00
2019-02-24T06:18:03.341Z,1.00
2019-02-24T06:20:30.164Z,1.10
2019-02-24T06:22:56.971Z,1.00
2019-02-24T06:25:23.858Z,1.00
2019-02-24T06:27:50.741Z,1.00
2019-02-24T06:30:17.657Z,1.00
2019-02-24T06:32:44.931Z,1.10
2019-02-24T06:35:11.852Z,1.10
2019-02-24T06:37:39.777Z,1.00
2019-02-24T06:40:06.883Z,1.10
2019-02-24T06:42:33.706Z,1.10
2019-02-24T06:45:00.506Z,1.20
2019-02-24T06:47:27.341Z,1.30
2019-02-24T06:49:54.151Z,1.40
2019-02-24T06:52:23.910Z,1.40
2019-02-24T06:54:50.873Z,1.50
2019-02-24T06:57:17.684Z,1.40
2019-02-24T06:59:44.479Z,1.50
2019-02-24T07:02:11.313Z,1.50
2019-02-24T07:04:38.134Z,1.50
2019-02-24T07:07:05.041Z,1.50
2019-02-24T07:09:31.898Z,1.50
2019-02-24T07:11:58.697Z,1.50
2019-02-24T07:14:25.563Z,1.60
2019-02-24T07:16:52.412Z,1.60
2019-02-24T07:19:19.439Z,1.60
2019-02-24T07:21:46.238Z,1.60
2019-02-24T07:24:13.114Z,1.60
2019-02-24T07:26:39.917Z,1.60
2019-02-24T07:29:06.740Z,1.80
2019-02-24T07:31:33.959Z,1.80
2019-02-24T07:34:00.873Z,1.90
2019-02-24T07:36:27.683Z,2.00
2019-02-24T07:38:54.568Z,2.10
2019-02-24T07:41:21.560Z,2.30
2019-02-24T07:43:48.566Z,2.50
2019-02-24T07:46:15.553Z,2.60
2019-02-24T07:48:42.352Z,2.80
2019-02-24T07:51:09.194Z,3.00
2019-02-24T07:53:36.059Z,3.20
2019-02-24T07:56:02.853Z,3.40
2019-02-24T07:58:30.089Z,3.60
2019-02-24T08:00:56.930Z,3.70
2019-02-24T08:03:23.727Z,3.80
2019-02-24T08:05:50.534Z,4.00
2019-02-24T08:08:17.359Z,4.10
2019-02-24T08:10:44.162Z,4.20
2019-02-24T08:13:10.986Z,4.30
2019-02-24T08:15:37.830Z,4.40
2019-02-24T08:18:04.641Z,4.50
2019-02-24T08:20:33.358Z,4.60
2019-02-24T08:23:00.533Z,4.70
2019-02-24T08:25:27.632Z,4.70
2019-02-24T08:27:55.602Z,4.70
2019-02-24T08:30:23.998Z,4.80
2019-02-24T08:32:50.909Z,4.90
2019-02-24T08:35:17.764Z,4.90
2019-02-24T08:37:44.737Z,5.00
2019-02-24T08:40:11.570Z,5.20
2019-02-24T08:42:38.353Z,5.20
2019-02-24T08:45:06.094Z,5.30
2019-02-24T08:47:32.997Z,5.50
2019-02-24T08:49:59.810Z,5.60
2019-02-24T08:52:26.848Z,5.70
2019-02-24T08:54:53.774Z,5.80
2019-02-24T08:57:20.630Z,5.90
2019-02-24T08:59:47.468Z,6.00
2019-02-24T09:02:14.345Z,6.10
2019-02-24T09:04:41.169Z,6.20
2019-02-24T09:07:08.633Z,6.10
2019-02-24T09:09:35.622Z,6.30
2019-02-24T09:12:02.426Z,6.20
2019-02-24T09:14:29.616Z,6.30
2019-02-24T09:16:56.654Z,6.40
2019-02-24T09:19:23.654Z,6.60
2019-02-24T09:21:50.591Z,6.70
2019-02-24T09:24:17.486Z,6.80
2019-02-24T09:26:44.286Z,6.90
2019-02-24T09:29:11.319Z,7.00
2019-02-24T09:31:38.693Z,7.00
2019-02-24T09:34:05.513Z,7.00
2019-02-24T09:36:32.433Z,7.00
2019-02-24T09:38:59.262Z,7.10
2019-02-24T09:41:26.063Z,7.00
2019-02-24T09:43:52.918Z,7.00
2019-02-24T09:46:19.827Z,7.00
2019-02-24T09:48:46.742Z,6.90
2019-02-24T09:51:13.610Z,7.10
2019-02-24T09:53:40.427Z,7.20
2019-02-24T09:56:07.283Z,7.20
2019-02-24T09:58:34.138Z,7.30
2019-02-24T10:01:09.969Z,7.30
2019-02-24T10:03:29.818Z,7.40
2019-02-24T10:05:56.650Z,7.40
2019-02-24T10:08:23.594Z,7.50
2019-02-24T10:10:50.398Z,7.50
2019-02-24T10:13:17.349Z,7.60
2019-02-24T10:15:44.281Z,7.70
2019-02-24T10:18:11.184Z,7.70
2019-02-24T10:20:38.222Z,7.90
2019-02-24T10:23:05.213Z,7.90
2019-02-24T10:25:32.123Z,7.90
2019-02-24T10:27:58.966Z,8.00
2019-02-24T10:30:25.929Z,8.00
2019-02-24T10:32:52.800Z,7.90
2019-02-24T10:35:19.741Z,7.90
2019-02-24T10:37:46.558Z,7.90
2019-02-24T10:40:13.678Z,8.00
2019-02-24T10:42:40.721Z,8.00
2019-02-24T10:45:09.457Z,8.10
2019-02-24T10:47:36.340Z,8.10
2019-02-24T10:50:04.628Z,8.30
2019-02-24T10:52:31.533Z,8.30
2019-02-24T10:54:58.338Z,8.30
2019-02-24T10:57:25.234Z,8.30
2019-02-24T10:59:52.129Z,8.30
2019-02-24T11:02:19.037Z,8.20
2019-02-24T11:04:46.110Z,8.30
2019-02-24T11:07:12.942Z,8.20
2019-02-24T11:09:39.758Z,8.30
2019-02-24T11:12:08.729Z,8.40
2019-02-24T11:14:35.313Z,8.40
2019-02-24T11:17:02.135Z,8.30
2019-02-24T11:19:29.251Z,8.30
2019-02-24T11:21:56.157Z,8.40
2019-02-24T11:24:22.973Z,8.40
2019-02-24T11:26:49.802Z,8.40
2019-02-24T11:29:16.732Z,8.50
2019-02-24T11:31:43.646Z,8.60
2019-02-24T11:34:10.495Z,8.60
2019-02-24T11:36:37.295Z,8.60
2019-02-24T11:39:05.405Z,8.60
2019-02-24T11:41:32.551Z,8.70
2019-02-24T11:43:59.359Z,8.70
2019-02-24T11:46:26.165Z,8.60
2019-02-24T11:48:53.202Z,8.70
2019-02-24T11:51:20.043Z,8.60
2019-02-24T11:53:46.937Z,8.30
2019-02-24T11:56:13.782Z,8.20
2019-02-24T11:58:40.604Z,8.20
2019-02-24T12:01:07.534Z,8.20
2019-02-24T12:03:34.472Z,8.20
2019-02-24T12:06:01.381Z,8.10
2019-02-24T12:08:28.198Z,8.10
2019-02-24T12:10:55.035Z,8.20
2019-02-24T12:13:21.959Z,8.20
2019-02-24T12:15:48.754Z,8.40
2019-02-24T12:18:15.697Z,8.50
2019-02-24T12:20:42.510Z,8.50
2019-02-24T12:23:09.325Z,8.50
2019-02-24T12:25:36.157Z,8.50
2019-02-24T12:28:03.057Z,8.40
2019-02-24T12:30:29.863Z,8.40
2019-02-24T12:32:56.774Z,8.50
2019-02-24T12:35:23.774Z,8.60
2019-02-24T12:37:50.571Z,8.70
2019-02-24T12:40:17.416Z,8.70
2019-02-24T12:42:45.344Z,8.70
2019-02-24T12:45:12.246Z,8.80
2019-02-24T12:47:39.321Z,8.90
2019-02-24T12:50:07.362Z,8.80
2019-02-24T12:52:34.258Z,8.80
2019-02-24T12:55:01.206Z,8.70
2019-02-24T12:57:28.101Z,8.60
2019-02-24T12:59:55.174Z,8.70
2019-02-24T13:02:22.218Z,8.60
2019-02-24T13:04:49.228Z,8.60
2019-02-24T13:07:16.134Z,8.60
2019-02-24T13:09:43.177Z,8.70
2019-02-24T13:12:10.011Z,8.80
2019-02-24T13:14:37.030Z,8.90
2019-02-24T13:17:04.073Z,9.10
2019-02-24T13:19:30.990Z,9.10
2019-02-24T13:21:57.890Z,9.20
2019-02-24T13:24:24.929Z,9.20
2019-02-24T13:26:51.822Z,9.20
2019-02-24T13:29:18.831Z,9.30
2019-02-24T13:31:45.889Z,9.30
2019-02-24T13:34:12.699Z,9.30
2019-02-24T13:36:39.609Z,9.30
2019-02-24T13:39:06.551Z,9.20
2019-02-24T13:41:33.358Z,9.30
2019-02-24T13:44:00.171Z,9.30
2019-02-24T13:46:27.388Z,9.20
2019-02-24T13:48:54.198Z,9.20
2019-02-24T13:51:20.995Z,9.20
2019-02-24T13:53:47.831Z,9.20
2019-02-24T13:56:14.937Z,9.30
2019-02-24T13:58:41.858Z,9.20
2019-02-24T14:01:08.695Z,9.20
2019-02-24T14:03:35.610Z,9.20
2019-02-24T14:06:02.648Z,9.20
2019-02-24T14:08:29.616Z,9.30
2019-02-24T14:10:56.519Z,9.40
2019-02-24T14:13:23.433Z,9.30
2019-02-24T14:15:50.289Z,9.20
2019-02-24T14:18:17.202Z,9.20
2019-02-24T14:20:44.009Z,9.20
2019-02-24T14:23:10.950Z,9.20
2019-02-24T14:25:37.740Z,9.20
2019-02-24T14:28:04.766Z,9.30
2019-02-24T14:30:31.721Z,9.20
2019-02-24T14:32:58.642Z,9.30
2019-02-24T14:35:25.669Z,9.30
2019-02-24T14:37:52.611Z,9.40
2019-02-24T14:40:19.442Z,9.40
2019-02-24T14:42:46.446Z,9.40
2019-02-24T14:45:14.113Z,9.40
2019-02-24T14:47:41.185Z,9.50
2019-02-24T14:50:08.257Z,9.50
2019-02-24T14:52:35.299Z,9.70
2019-02-24T14:55:02.306Z,9.70
2019-02-24T14:57:29.121Z,9.70
2019-02-24T14:59:55.963Z,9.70
2019-02-24T15:02:22.842Z,9.60
2019-02-24T15:04:49.881Z,9.60
2019-02-24T15:07:16.753Z,9.40
2019-02-24T15:09:43.574Z,9.40
2019-02-24T15:12:10.377Z,9.40
2019-02-24T15:14:37.236Z,9.30
2019-02-24T15:17:04.122Z,9.30
2019-02-24T15:19:30.928Z,9.20
2019-02-24T15:21:57.945Z,9.10
2019-02-24T15:24:24.908Z,9.00
2019-02-24T15:26:51.773Z,8.90
2019-02-24T15:29:18.647Z,8.90
2019-02-24T15:31:46.789Z,8.90
2019-02-24T15:34:13.813Z,8.80
2019-02-24T15:36:40.930Z,8.70
2019-02-24T15:39:08.062Z,8.60
2019-02-24T15:41:34.977Z,8.50
2019-02-24T15:44:02.050Z,8.40
2019-02-24T15:46:28.902Z,8.40
2019-02-24T15:48:55.817Z,8.40
2019-02-24T15:51:22.861Z,8.30
2019-02-24T15:53:49.825Z,8.20
2019-02-24T15:56:16.666Z,8.10
2019-02-24T15:58:43.618Z,8.00
2019-02-24T16:01:10.422Z,7.90
2019-02-24T16:03:37.326Z,7.80
2019-02-24T16:06:04.424Z,7.70
2019-02-24T16:08:31.342Z,7.70
2019-02-24T16:10:58.147Z,7.50
2019-02-24T16:13:25.083Z,7.60
2019-02-24T16:15:51.880Z,7.50
2019-02-24T16:18:18.690Z,7.40
2019-02-24T16:20:45.526Z,7.30
2019-02-24T16:23:12.394Z,7.20
2019-02-24T16:25:39.304Z,7.10
2019-02-24T16:28:06.242Z,6.90
2019-02-24T16:30:33.134Z,6.80
2019-02-24T16:33:00.134Z,6.80
2019-02-24T16:35:27.177Z,6.60
2019-02-24T16:37:53.962Z,6.50
2019-02-24T16:40:20.987Z,6.40
2019-02-24T16:42:47.833Z,6.30
2019-02-24T16:45:14.841Z,6.20
2019-02-24T16:47:41.847Z,6.00
2019-02-24T16:50:10.589Z,6.00
2019-02-24T16:52:37.505Z,5.90
2019-02-24T16:55:05.781Z,5.80
2019-02-24T16:57:32.642Z,5.80
2019-02-24T16:59:59.486Z,5.70
2019-02-24T17:02:27.129Z,5.70
2019-02-24T17:04:53.956Z,5.60
2019-02-24T17:07:21.313Z,5.50
2019-02-24T17:09:48.362Z,5.50
2019-02-24T17:12:15.202Z,5.40
2019-02-24T17:14:42.035Z,5.30
2019-02-24T17:17:08.837Z,5.30
2019-02-24T17:19:35.674Z,5.20
2019-02-24T17:22:02.482Z,5.10
2019-02-24T17:24:29.410Z,5.10
2019-02-24T17:26:56.265Z,5.00
2019-02-24T17:29:23.083Z,4.80
2019-02-24T17:31:49.898Z,4.80
2019-02-24T17:34:16.759Z,4.70
2019-02-24T17:36:43.553Z,4.60
2019-02-24T17:39:10.364Z,4.60
2019-02-24T17:41:37.211Z,4.70
2019-02-24T17:44:04.271Z,4.60
2019-02-24T17:46:31.075Z,4.60
2019-02-24T17:48:59.844Z,4.50
2019-02-24T17:51:26.807Z,4.40
2019-02-24T17:53:53.623Z,4.40
2019-02-24T17:56:20.713Z,4.50
2019-02-24T17:58:47.630Z,4.40
2019-02-24T18:01:14.544Z,4.30
2019-02-24T18:03:41.490Z,4.30
2019-02-24T18:06:08.422Z,4.10
2019-02-24T18:08:35.251Z,4.00
2019-02-24T18:11:02.137Z,4.00
2019-02-24T18:13:29.127Z,4.00
2019-02-24T18:15:57.741Z,4.00
2019-02-24T18:18:24.873Z,3.90
2019-02-24T18:20:51.878Z,3.90
2019-02-24T18:23:18.794Z,3.80
2019-02-24T18:25:45.662Z,3.80
2019-02-24T18:28:12.654Z,3.80
2019-02-24T18:30:39.954Z,3.70
2019-02-24T18:33:06.908Z,3.70
2019-02-24T18:35:33.817Z,3.70
2019-02-24T18:38:00.619Z,3.60
2019-02-24T18:40:27.651Z,3.60
2019-02-24T18:43:00.276Z,3.60
2019-02-24T18:45:24.114Z,3.60
2019-02-24T18:47:51.062Z,3.50
2019-02-24T18:50:18.091Z,3.50
2019-02-24T18:52:44.969Z,3.40
2019-02-24T18:55:12.005Z,3.30
2019-02-24T18:57:38.949Z,3.40
2019-02-24T19:00:07.355Z,3.40
2019-02-24T19:02:34.213Z,3.30
2019-02-24T19:05:01.113Z,3.20
2019-02-24T19:07:27.938Z,3.20
2019-02-24T19:09:54.885Z,3.30
2019-02-24T19:12:21.796Z,3.30
2019-02-24T19:14:48.606Z,3.20
2019-02-24T19:17:15.455Z,3.10
2019-02-24T19:19:42.378Z,3.10
2019-02-24T19:22:09.175Z,2.90
2019-02-24T19:24:37.270Z,2.90
2019-02-24T19:27:04.453Z,2.90
2019-02-24T19:29:31.373Z,3.00
2019-02-24T19:31:58.219Z,3.10
2019-02-24T19:34:25.019Z,3.10
2019-02-24T19:36:51.951Z,3.20
2019-02-24T19:39:18.795Z,3.30
2019-02-24T19:41:45.732Z,3.30
2019-02-24T19:44:12.656Z,3.30
2019-02-24T19:46:39.610Z,3.30
2019-02-24T19:49:06.521Z,3.40
2019-02-24T19:51:33.322Z,3.40
2019-02-24T19:54:00.295Z,3.40
2019-02-24T19:56:27.206Z,3.40
2019-02-24T19:58:54.122Z,3.50
2019-02-24T20:01:20.956Z,3.60
2019-02-24T20:03:47.761Z,3.60
2019-02-24T20:06:14.789Z,3.60
2019-02-24T20:08:41.633Z,3.70
2019-02-24T20:11:08.523Z,3.70
2019-02-24T20:13:35.537Z,3.80
2019-02-24T20:16:02.628Z,3.80
2019-02-24T20:18:29.527Z,3.80
2019-02-24T20:20:56.353Z,3.90
2019-02-24T20:23:23.363Z,3.90
2019-02-24T20:25:50.183Z,4.00
2019-02-24T20:28:17.078Z,4.00
2019-02-24T20:30:43.928Z,4.00
2019-02-24T20:33:10.850Z,4.00
2019-02-24T20:35:37.858Z,4.10
2019-02-24T20:38:04.808Z,4.20
2019-02-24T20:40:31.884Z,4.30
2019-02-24T20:42:58.691Z,4.30
2019-02-24T20:45:25.759Z,4.40
2019-02-24T20:47:52.758Z,4.40
2019-02-24T20:50:19.728Z,4.40
2019-02-24T20:52:46.721Z,4.40
2019-02-24T20:55:13.709Z,4.50
2019-02-24T20:57:40.611Z,4.50
2019-02-24T21:00:12.209Z,4.50
2019-02-24T21:02:39.116Z,4.50
2019-02-24T21:05:06.120Z,4.50
2019-02-24T21:07:32.985Z,4.50
2019-02-24T21:09:59.779Z,4.50
2019-02-24T21:12:26.605Z,4.50
2019-02-24T21:14:53.584Z,4.60
2019-02-24T21:17:20.507Z,4.50
2019-02-24T21:19:47.410Z,4.60
2019-02-24T21:22:14.249Z,4.60
2019-02-24T21:24:41.167Z,4.60
2019-02-24T21:27:07.972Z,4.60
2019-02-24T21:29:34.818Z,4.60
2019-02-24T21:32:01.742Z,4.60
2019-02-24T21:34:28.546Z,4.60
2019-02-24T21:36:55.493Z,4.60
2019-02-24T21:39:22.390Z,4.60
2019-02-24T21:41:49.188Z,4.60
2019-02-24T21:44:16.031Z,4.60
2019-02-24T21:46:42.829Z,4.60
2019-02-24T21:49:09.875Z,4.50
2019-02-24T21:51:36.818Z,4.50
2019-02-24T21:54:03.817Z,4.50
2019-02-24T21:56:30.744Z,4.60
2019-02-24T21:58:57.591Z,4.50
2019-02-24T22:01:24.389Z,4.60
2019-02-24T22:03:51.296Z,4.60
2019-02-24T22:06:18.250Z,4.60
2019-02-24T22:08:45.953Z,4.50
2019-02-24T22:11:12.773Z,4.50
2019-02-24T22:13:39.618Z,4.50
2019-02-24T22:16:06.428Z,4.60
2019-02-24T22:18:33.350Z,4.60
2019-02-24T22:21:00.202Z,4.60
2019-02-24T22:23:27.125Z,4.60
2019-02-24T22:25:54.046Z,4.60
2019-02-24T22:28:20.922Z,4.60
2019-02-24T22:30:47.721Z,4.60
2019-02-24T22:33:14.530Z,4.60
2019-02-24T22:35:41.517Z,4.60
2019-02-24T22:38:08.526Z,4.50
2019-02-24T22:40:35.518Z,4.50
2019-02-24T22:43:02.534Z,4.40
2019-02-24T22:45:29.452Z,4.40
2019-02-24T22:47:56.260Z,4.40
2019-02-24T22:50:23.327Z,4.40
2019-02-24T22:52:50.214Z,4.40
2019-02-24T22:55:17.270Z,4.40
2019-02-24T22:57:44.413Z,4.40
2019-02-24T23:00:55.687Z,4.40
2019-02-24T23:03:24.277Z,4.40
2019-02-24T23:05:51.220Z,4.40
2019-02-24T23:08:18.318Z,4.40
2019-02-24T23:10:45.362Z,4.40
2019-02-24T23:13:12.297Z,4.40
2019-02-24T23:15:39.107Z,4.40
2019-02-24T23:18:06.135Z,4.30
2019-02-24T23:20:33.129Z,4.30
2019-02-24T23:23:00.022Z,4.30
2019-02-24T23:25:26.962Z,4.30
2019-02-24T23:27:53.874Z,4.30
2019-02-24T23:30:20.883Z,4.30
2019-02-24T23:32:47.745Z,4.30
2019-02-24T23:35:14.683Z,4.30
2019-02-24T23:37:41.472Z,4.30
2019-02-24T23:40:08.629Z,4.30
2019-02-24T23:42:35.534Z,4.30
2019-02-24T23:45:09.729Z,4.30
2019-02-24T23:47:31.506Z,4.30
2019-02-24T23:49:58.321Z,4.30
2019-02-24T23:52:26.179Z,4.30
2019-02-24T23:54:53.125Z,4.30
2019-02-24T23:57:20.070Z,4.40
2019-02-24T23:59:47.042Z,4.40
